Time;durP1;ratioP1;P1;durP2;ratioP2;P2;SDS_P1;SDS_P2;PMS_P1;PMS_P2;Temp;Humidity;BMP_temperature;BMP_pressure;BME280_temperature;BME280_humidity;BME280_pressure;Samples;Min_cycle;Max_cycle;Signal;HPM_P1;HPM_P2
2022/05/15 00:02:40;;;;;;;25.42;8.85;;;;;;;-149.78;100.00;50072.50;5109202;27;20069;-70
2022/05/15 00:05:07;;;;;;;27.17;8.55;;;;;;;-149.78;100.00;50115.50;5096060;28;20036;-70
2022/05/15 00:07:32;;;;;;;17.95;8.20;;;;;;;-149.78;100.00;50119.41;5118258;27;20470;-69
2022/05/15 00:09:58;;;;;;;14.40;8.02;;;;;;;-149.78;100.00;50103.78;5116802;27;20046;-69
2022/05/15 00:12:24;;;;;;;21.27;9.00;;;;;;;-149.78;100.00;50164.41;5117072;27;20071;-69
2022/05/15 00:14:50;;;;;;;17.48;9.30;;;;;;;-149.78;100.00;50111.59;5116756;27;20035;-70
2022/05/15 00:17:16;;;;;;;18.15;10.07;;;;;;;-149.78;100.00;50121.38;5135474;27;20197;-69
2022/05/15 00:19:42;;;;;;;26.35;11.30;;;;;;;-149.78;100.00;50101.81;5116972;27;20042;-69
2022/05/15 00:22:11;;;;;;;23.27;11.50;;;;;;;-149.78;100.00;50144.84;5117636;27;20398;-69
2022/05/15 00:24:38;;;;;;;23.52;10.52;;;;;;;-149.78;100.00;50172.22;5134958;27;20047;-69
2022/05/15 00:27:04;;;;;;;116.43;47.30;;;;;;;-149.78;100.00;50142.88;5099712;27;20043;-69
2022/05/15 00:29:30;;;;;;;69.07;26.15;;;;;;;-149.78;100.00;50166.34;5135083;27;20038;-69
2022/05/15 00:31:57;;;;;;;30.35;11.35;;;;;;;-149.78;100.00;50111.59;5135174;27;20427;-70
2022/05/15 00:34:22;;;;;;;22.17;8.85;;;;;;;-149.78;100.00;50111.59;5116513;27;20066;-69
2022/05/15 00:36:48;;;;;;;23.60;9.30;;;;;;;-149.78;100.00;50135.06;5116225;27;20066;-69
2022/05/15 00:39:14;;;;;;;23.08;9.32;;;;;;;-149.78;100.00;50158.53;5134772;27;20035;-69
2022/05/15 00:41:40;;;;;;;21.13;7.88;;;;;;;-149.78;100.00;50133.09;5134560;27;20037;-69
2022/05/15 00:44:08;;;;;;;21.75;8.77;;;;;;;-149.78;100.00;50121.38;5116195;27;20185;-69
2022/05/15 00:46:38;;;;;;;20.13;8.57;;;;;;;-149.78;100.00;50131.16;5134581;27;20035;-69
2022/05/15 00:49:11;;;;;;;25.88;8.65;;;;;;;-149.78;100.00;50166.34;5134241;27;20040;-69
2022/05/15 00:51:50;;;;;;;20.70;10.23;;;;;;;-149.78;100.00;50123.34;5124920;27;20036;-69
2022/05/15 00:54:24;;;;;;;23.25;8.93;;;;;;;-149.78;100.00;50111.59;5111861;28;20027;-69
2022/05/15 00:56:58;;;;;;;24.90;10.15;;;;;;;-149.78;100.00;50125.28;5113940;28;20032;-69
2022/05/15 00:59:28;;;;;;;25.20;10.45;;;;;;;-149.78;100.00;50095.94;5114224;28;20081;-69
2022/05/15 01:01:54;;;;;;;24.40;10.52;;;;;;;-149.78;100.00;50119.41;5114028;28;20031;-69
2022/05/15 01:04:22;;;;;;;24.48;11.10;;;;;;;-149.78;100.00;50133.09;5114041;28;20510;-69
2022/05/15 01:06:50;;;;;;;32.20;12.77;;;;;;;-149.78;100.00;50127.25;5113872;28;20035;-69
2022/05/15 01:09:19;;;;;;;22.15;11.65;;;;;;;-149.78;100.00;50123.34;5113715;28;20063;-69
2022/05/15 01:11:48;;;;;;;27.80;11.20;;;;;;;-149.78;100.00;50162.44;5062683;28;20043;-69
2022/05/15 01:14:18;;;;;;;26.40;12.43;;;;;;;-149.78;100.00;50127.25;5107790;28;20043;-69
2022/05/15 01:16:46;;;;;;;28.70;11.45;;;;;;;-149.78;100.00;50119.41;5095526;28;20040;-70
2022/05/15 01:19:37;;;;;;;27.02;12.55;;;;;;;-149.78;100.00;50127.25;5113603;28;20039;-69
2022/05/15 01:22:05;;;;;;;27.55;12.23;;;;;;;-149.78;100.00;50119.41;5113368;28;20114;-69
2022/05/15 01:24:31;;;;;;;25.38;11.73;;;;;;;-149.78;100.00;50123.34;5103178;27;20538;-69
2022/05/15 01:27:03;;;;;;;25.73;11.32;;;;;;;-149.78;100.00;50131.16;5115190;27;20088;-69
2022/05/15 01:29:35;;;;;;;30.58;11.90;;;;;;;-149.78;100.00;50137.03;5115466;27;20130;-69
2022/05/15 01:32:01;;;;;;;27.08;10.90;;;;;;;-149.78;100.00;50150.72;5115199;27;20027;-69
2022/05/15 01:34:27;;;;;;;26.30;10.88;;;;;;;-149.78;100.00;50154.63;5133986;27;20043;-70
2022/05/15 01:36:53;;;;;;;26.92;10.82;;;;;;;-149.78;100.00;50158.53;5133741;27;20043;-69
2022/05/15 01:39:20;;;;;;;20.90;10.30;;;;;;;-149.78;100.00;50123.34;5133929;27;20050;-69
2022/05/15 01:41:45;;;;;;;26.50;9.95;;;;;;;-149.78;100.00;50119.41;5098045;27;20027;-69
2022/05/15 01:44:11;;;;;;;22.90;9.95;;;;;;;-149.78;100.00;50158.53;5103996;27;20035;-69
2022/05/15 01:46:36;;;;;;;37.42;21.50;;;;;;;-149.78;100.00;50119.41;5115293;27;20042;-69
2022/05/15 01:49:06;;;;;;;48.72;27.98;;;;;;;-149.78;100.00;50123.34;5114939;27;20046;-70
2022/05/15 01:51:33;;;;;;;47.85;28.58;;;;;;;-149.78;100.00;50135.06;5133374;27;20062;-69
2022/05/15 01:54:01;;;;;;;45.78;26.85;;;;;;;-149.78;100.00;50156.56;5133346;27;20105;-69
2022/05/15 01:56:28;;;;;;;47.67;25.45;;;;;;;-149.78;100.00;50129.19;5133379;27;20110;-69
2022/05/15 01:58:54;;;;;;;35.40;21.73;;;;;;;-149.78;100.00;50137.03;5133324;27;20027;-69
2022/05/15 02:01:20;;;;;;;37.72;16.70;;;;;;;-149.78;100.00;50113.56;5114798;27;20028;-69
2022/05/15 02:03:46;;;;;;;33.72;16.50;;;;;;;-149.78;100.00;50127.25;5114762;27;20023;-69
2022/05/15 02:06:11;;;;;;;27.55;12.50;;;;;;;-149.78;100.00;50113.56;5133426;27;20408;-69
2022/05/15 02:08:38;;;;;;;29.23;12.40;;;;;;;-149.78;100.00;50129.19;5114827;27;20032;-69
2022/05/15 02:11:05;;;;;;;32.10;13.32;;;;;;;-149.78;100.00;50080.31;5133322;27;20031;-69
2022/05/15 02:13:31;;;;;;;27.42;12.20;;;;;;;-149.78;100.00;50146.81;5114874;27;20037;-69
2022/05/15 02:15:57;;;;;;;21.92;11.13;;;;;;;-149.78;100.00;50146.81;5133163;27;20035;-69
2022/05/15 02:18:23;;;;;;;25.98;11.18;;;;;;;-149.78;100.00;50133.09;5132978;27;20114;-69
2022/05/15 02:20:49;;;;;;;23.95;11.00;;;;;;;-149.78;100.00;50127.25;5133103;27;20035;-69
2022/05/15 02:23:15;;;;;;;23.15;10.98;;;;;;;-149.78;100.00;50137.03;5133232;27;20095;-69
2022/05/15 02:25:41;;;;;;;26.08;11.15;;;;;;;-149.78;100.00;50123.34;5114526;27;20027;-69
2022/05/15 02:28:08;;;;;;;23.98;10.00;;;;;;;-149.78;100.00;50135.06;5097664;27;20039;-69
2022/05/15 02:30:34;;;;;;;17.67;9.90;;;;;;;-149.78;100.00;50088.13;5133020;27;20118;-69
2022/05/15 02:33:00;;;;;;;20.60;9.52;;;;;;;-149.78;100.00;50138.97;5114722;28;20046;-69
2022/05/15 02:35:26;;;;;;;25.13;10.52;;;;;;;-149.78;100.00;50135.06;5133145;28;20348;-69
2022/05/15 02:37:52;;;;;;;21.00;10.00;;;;;;;-149.78;100.00;50117.47;5132619;27;20477;-69
2022/05/15 02:40:21;;;;;;;28.13;10.27;;;;;;;-149.78;100.00;50140.94;5136010;27;20031;-69
2022/05/15 02:42:48;;;;;;;24.73;10.02;;;;;;;-149.78;100.00;50150.72;5118577;27;20470;-69
2022/05/15 02:45:14;;;;;;;23.95;11.02;;;;;;;-149.78;100.00;50115.50;5137192;27;20412;-69
2022/05/15 02:47:41;;;;;;;29.00;10.73;;;;;;;-149.78;100.00;50123.34;5136822;27;20371;-69
2022/05/15 02:52:53;;;;;;;21.13;10.02;;;;;;;-149.78;100.00;50135.06;5136746;27;20019;-70
2022/05/15 02:55:20;;;;;;;21.38;9.77;;;;;;;-149.78;100.00;50164.41;5135560;27;20481;-69
2022/05/15 02:57:47;;;;;;;20.38;9.80;;;;;;;-149.78;100.00;50115.50;5111192;27;20023;-69
2022/05/15 03:00:14;;;;;;;23.88;9.70;;;;;;;-149.78;100.00;50154.63;5101159;27;20042;-69
2022/05/15 03:02:41;;;;;;;28.27;11.55;;;;;;;-149.78;100.00;50142.88;5136431;27;20467;-69
2022/05/15 03:05:09;;;;;;;23.50;9.93;;;;;;;-149.78;100.00;50135.06;5136745;27;20031;-69
2022/05/15 03:07:36;;;;;;;24.20;9.60;;;;;;;-149.78;100.00;50138.97;5116309;27;20043;-69
2022/05/15 03:10:03;;;;;;;21.45;9.82;;;;;;;-149.78;100.00;50123.34;5136677;27;20825;-69
2022/05/15 03:12:29;;;;;;;27.95;10.07;;;;;;;-149.78;100.00;50148.75;5118410;27;20454;-69
2022/05/15 03:14:55;;;;;;;23.42;9.77;;;;;;;-149.78;100.00;50127.25;5132603;27;20031;-69
2022/05/15 03:17:21;;;;;;;22.38;9.70;;;;;;;-149.78;100.00;50148.75;5098943;27;20035;-69
2022/05/15 03:19:47;;;;;;;19.90;8.38;;;;;;;-149.78;100.00;50060.75;5136412;27;20332;-69
2022/05/15 03:22:13;;;;;;;25.75;10.07;;;;;;;-149.78;100.00;50115.50;5101404;27;20041;-69
2022/05/15 03:24:39;;;;;;;23.77;8.88;;;;;;;-149.78;100.00;50166.34;5136123;27;20031;-69
2022/05/15 03:27:05;;;;;;;18.17;7.90;;;;;;;-149.78;100.00;50119.41;5136209;27;20042;-70
2022/05/15 03:29:30;;;;;;;17.52;8.13;;;;;;;-149.78;100.00;50107.69;5100777;27;20039;-69
2022/05/15 03:31:57;;;;;;;30.38;10.65;;;;;;;-149.78;100.00;50166.34;5100880;27;20043;-70
2022/05/15 03:34:24;;;;;;;24.50;9.25;;;;;;;-149.78;100.00;50146.81;5136112;27;20544;-69
2022/05/15 03:36:51;;;;;;;24.67;10.10;;;;;;;-149.78;100.00;50097.91;5136080;27;20079;-69
2022/05/15 03:39:19;;;;;;;18.65;6.65;;;;;;;-149.78;100.00;50135.06;5136127;27;20027;-70
2022/05/15 03:41:47;;;;;;;22.45;7.47;;;;;;;-149.78;100.00;50115.50;5136142;27;20034;-69
2022/05/15 03:44:13;;;;;;;22.48;7.10;;;;;;;-149.78;100.00;50117.47;5136155;27;20029;-69
2022/05/15 03:46:39;;;;;;;20.65;7.57;;;;;;;-149.78;100.00;50103.78;5100266;27;20185;-69
2022/05/15 03:49:06;;;;;;;22.88;7.78;;;;;;;-149.78;100.00;50107.69;5126070;27;20052;-69
2022/05/15 03:51:33;;;;;;;24.52;9.00;;;;;;;-149.78;100.00;50111.59;5132507;27;20031;-69
2022/05/15 03:53:59;;;;;;;28.17;10.68;;;;;;;-149.78;100.00;50105.72;5135941;27;20398;-69
2022/05/15 03:59:12;;;;;;;23.08;9.73;;;;;;;-149.78;100.00;50142.88;5135957;27;20095;-70
2022/05/15 04:01:38;;;;;;;28.38;10.27;;;;;;;-149.78;100.00;50080.31;5135771;27;20034;-69
2022/05/15 04:04:04;;;;;;;26.90;9.88;;;;;;;-149.78;100.00;50138.97;5135629;27;20042;-69
2022/05/15 04:06:29;;;;;;;25.27;10.75;;;;;;;-149.78;100.00;50137.03;5117287;27;20129;-69
2022/05/15 04:08:55;;;;;;;27.13;10.05;;;;;;;-149.78;100.00;50135.06;5135496;27;20055;-69
2022/05/15 04:11:21;;;;;;;21.63;9.13;;;;;;;-149.78;100.00;50158.53;5135670;27;20127;-70
2022/05/15 04:13:47;;;;;;;21.30;9.35;;;;;;;-149.78;100.00;50154.63;5117303;27;20088;-69
2022/05/15 04:16:13;;;;;;;22.45;8.57;;;;;;;-149.78;100.00;50146.81;5100176;27;20031;-69
2022/05/15 04:18:40;;;;;;;26.17;8.10;;;;;;;-149.78;100.00;50144.84;5117061;27;20058;-69
2022/05/15 04:21:06;;;;;;;17.92;7.45;;;;;;;-149.78;100.00;50138.97;5135566;27;20084;-73
2022/05/15 04:23:32;;;;;;;20.13;7.13;;;;;;;-149.78;100.00;50131.16;5100274;27;20043;-74
2022/05/15 04:25:58;;;;;;;10.23;5.20;;;;;;;-149.78;100.00;50097.91;5117471;27;20099;-73
2022/05/15 04:28:31;;;;;;;14.57;5.57;;;;;;;-149.78;100.00;50158.53;5135447;27;20035;-73
2022/05/15 04:30:56;;;;;;;20.02;7.50;;;;;;;-149.78;100.00;50154.63;5135436;27;20042;-73
2022/05/15 04:33:22;;;;;;;21.35;7.65;;;;;;;-149.78;100.00;50162.44;5117308;27;20114;-74
2022/05/15 04:35:48;;;;;;;23.85;8.30;;;;;;;-149.78;100.00;50152.66;5135362;27;20036;-72
2022/05/15 04:38:13;;;;;;;26.42;9.50;;;;;;;-149.78;100.00;50158.53;5117179;27;20032;-73
2022/05/15 04:40:39;;;;;;;26.25;9.88;;;;;;;-149.78;100.00;50174.19;5141051;27;20030;-72
2022/05/15 04:43:05;;;;;;;23.60;9.02;;;;;;;-149.78;100.00;50158.53;5116903;27;20046;-73
2022/05/15 04:45:30;;;;;;;26.63;9.98;;;;;;;-149.78;100.00;50148.75;5116892;27;20134;-73
2022/05/15 04:47:56;;;;;;;29.98;10.00;;;;;;;-149.78;100.00;50131.16;5135137;27;20039;-73
2022/05/15 04:50:22;;;;;;;25.70;10.38;;;;;;;-149.78;100.00;50150.72;5113112;28;20051;-73
2022/05/15 04:52:48;;;;;;;26.30;10.38;;;;;;;-149.78;100.00;50168.31;5114496;28;20118;-73
2022/05/15 04:55:14;;;;;;;28.50;11.32;;;;;;;-149.78;100.00;50150.72;5096902;28;20051;-73
2022/05/15 04:57:40;;;;;;;27.27;10.98;;;;;;;-149.78;100.00;50170.25;5103476;28;20070;-73
2022/05/15 05:00:10;;;;;;;22.88;10.43;;;;;;;-149.78;100.00;50123.34;5114228;28;20459;-73
2022/05/15 05:02:36;;;;;;;27.02;10.27;;;;;;;-149.78;100.00;50140.94;5113530;28;20031;-73
2022/05/15 05:05:03;;;;;;;35.05;11.68;;;;;;;-149.78;100.00;50119.41;5095835;28;20028;-73
2022/05/15 05:07:29;;;;;;;26.65;11.70;;;;;;;-149.78;100.00;50187.88;5114168;28;20027;-73
2022/05/15 05:09:55;;;;;;;31.48;11.10;;;;;;;-149.78;100.00;50185.91;5113938;28;20043;-73
2022/05/15 05:12:21;;;;;;;28.60;12.05;;;;;;;-149.78;100.00;50131.16;5112711;28;20407;-72
2022/05/15 05:14:47;;;;;;;26.38;11.80;;;;;;;-149.78;100.00;50150.72;5125414;27;20050;-73
2022/05/15 05:17:16;;;;;;;27.38;11.45;;;;;;;-149.78;100.00;50170.25;5112773;28;20486;-73
2022/05/15 05:19:42;;;;;;;34.05;11.10;;;;;;;-149.78;100.00;50131.16;5113656;28;20028;-73
2022/05/15 05:22:09;;;;;;;32.60;11.68;;;;;;;-149.78;100.00;50189.81;5113498;28;20048;-73
2022/05/15 05:24:35;;;;;;;25.52;11.55;;;;;;;-149.78;100.00;50144.84;5113515;28;20428;-73
2022/05/15 05:27:01;;;;;;;26.13;12.25;;;;;;;-149.78;100.00;50127.25;5112034;28;20089;-73
2022/05/15 05:29:29;;;;;;;29.67;11.02;;;;;;;-149.78;100.00;50142.88;5116007;28;20451;-74
2022/05/15 05:31:54;;;;;;;26.92;11.20;;;;;;;-149.78;100.00;50182.00;5117490;28;20425;-73
2022/05/15 05:34:20;;;;;;;28.63;11.52;;;;;;;-149.78;100.00;50137.03;5117590;28;20089;-73
2022/05/15 05:36:46;;;;;;;28.33;11.02;;;;;;;-149.78;100.00;50135.06;5115045;28;20039;-73
2022/05/15 05:39:13;;;;;;;27.73;11.43;;;;;;;-149.78;100.00;50138.97;5101095;28;20108;-73
2022/05/15 05:41:39;;;;;;;23.00;10.60;;;;;;;-149.78;100.00;50178.09;5105952;28;20058;-73
2022/05/15 05:44:05;;;;;;;25.58;11.40;;;;;;;-149.78;100.00;50138.97;5088260;28;20451;-73
2022/05/15 05:46:31;;;;;;;27.58;10.98;;;;;;;-149.78;100.00;50154.63;5101029;28;20035;-73
2022/05/15 05:48:57;;;;;;;28.92;12.00;;;;;;;-149.78;100.00;50166.34;5109689;27;20096;-73
2022/05/15 05:51:23;;;;;;;30.58;13.60;;;;;;;-149.78;100.00;50148.75;5106106;27;20034;-73
2022/05/15 05:53:51;;;;;;;34.40;12.38;;;;;;;-149.78;100.00;50123.34;5103650;27;20548;-73
2022/05/15 05:56:16;;;;;;;31.70;11.98;;;;;;;-149.78;100.00;50154.63;5105013;27;20494;-73
2022/05/15 05:58:43;;;;;;;27.23;12.38;;;;;;;-149.78;100.00;50123.34;5104951;27;20434;-73
2022/05/15 06:01:10;;;;;;;28.13;12.25;;;;;;;-149.78;100.00;50123.34;5117358;27;20034;-73
2022/05/15 06:06:19;;;;;;;33.08;12.90;;;;;;;-149.78;100.00;50182.00;5101716;28;20039;-73
2022/05/15 06:08:45;;;;;;;33.72;12.65;;;;;;;-149.78;100.00;50185.91;5098952;28;20069;-73
2022/05/15 06:11:12;;;;;;;27.08;12.23;;;;;;;-149.78;100.00;50172.22;5097147;27;20039;-73
2022/05/15 06:13:39;;;;;;;28.33;12.48;;;;;;;-149.78;100.00;50138.97;5115902;27;20031;-73
2022/05/15 06:16:07;;;;;;;25.38;12.43;;;;;;;-149.78;100.00;50154.63;5116458;27;20106;-73
2022/05/15 06:18:33;;;;;;;30.65;12.93;;;;;;;-149.78;100.00;50158.53;5111838;28;20027;-73
2022/05/15 06:20:59;;;;;;;33.00;12.00;;;;;;;-149.78;100.00;50146.81;5117642;28;20065;-73
2022/05/15 06:23:25;;;;;;;32.70;12.02;;;;;;;-149.78;100.00;50131.16;5117337;27;20401;-73
2022/05/15 06:25:51;;;;;;;34.05;12.15;;;;;;;-149.78;100.00;50174.19;5096632;27;20586;-73
2022/05/15 06:28:16;;;;;;;28.20;11.77;;;;;;;-149.78;100.00;50123.34;5115923;27;20032;-73
2022/05/15 06:30:42;;;;;;;36.03;13.05;;;;;;;-149.78;100.00;50144.84;5100913;27;20049;-73
2022/05/15 06:33:08;;;;;;;31.92;13.93;;;;;;;-149.78;100.00;50138.97;5117341;27;20122;-73
2022/05/15 06:35:33;;;;;;;28.05;12.40;;;;;;;-149.78;100.00;50150.72;5123327;27;20394;-73
2022/05/15 06:38:04;;;;;;;33.83;11.93;;;;;;;-149.78;100.00;50158.53;5102053;27;20035;-73
2022/05/15 06:40:30;;;;;;;26.30;12.10;;;;;;;-149.78;100.00;50131.16;5122373;28;20495;-73
2022/05/15 06:42:57;;;;;;;26.67;11.70;;;;;;;-149.78;100.00;50125.28;5123708;28;20127;-73
2022/05/15 06:45:24;;;;;;;30.25;11.13;;;;;;;-149.78;100.00;50160.50;5100417;28;20038;-73
2022/05/15 06:47:49;;;;;;;26.00;11.40;;;;;;;-149.78;100.00;50129.19;5094826;28;20030;-73
2022/05/15 06:50:16;;;;;;;26.27;11.40;;;;;;;-149.78;100.00;50119.41;5100692;28;20047;-73
2022/05/15 06:52:42;;;;;;;23.88;11.27;;;;;;;-149.78;100.00;50152.66;5100197;28;20036;-73
2022/05/15 06:55:14;;;;;;;28.67;11.82;;;;;;;-149.78;100.00;50174.19;5104468;28;20804;-73
2022/05/15 06:57:40;;;;;;;;;;;;;;;-149.78;100.00;50138.97;5098565;28;20027;-73
2022/05/15 07:00:10;;;;;;;27.40;10.20;;;;;;;-149.78;100.00;50142.88;5101398;28;19916;-73
2022/05/15 07:02:36;;;;;;;24.90;10.13;;;;;;;-149.78;100.00;50123.34;5099347;28;20548;-73
2022/05/15 07:05:04;;;;;;;20.15;9.15;;;;;;;-149.78;100.00;50162.44;5100246;28;20055;-72
2022/05/15 07:07:30;;;;;;;29.45;9.73;;;;;;;-149.78;100.00;50170.25;5101270;28;20043;-73
2022/05/15 07:09:56;;;;;;;22.27;9.85;;;;;;;-149.78;100.00;50160.50;5097599;28;20032;-73
2022/05/15 07:12:23;;;;;;;23.73;9.85;;;;;;;-149.78;100.00;50138.97;5101706;28;20122;-73
2022/05/15 07:14:48;;;;;;;23.63;9.95;;;;;;;-149.78;100.00;50156.56;5107531;28;20027;-73
2022/05/15 07:17:14;;;;;;;27.67;9.85;;;;;;;-149.78;100.00;50154.63;5095395;28;20036;-72
2022/05/15 07:19:39;;;;;;;28.65;9.35;;;;;;;-149.78;100.00;50176.13;5097072;28;20823;-73
2022/05/15 07:22:05;;;;;;;21.60;8.75;;;;;;;-149.78;100.00;50150.72;5100100;28;20122;-73
2022/05/15 07:24:31;;;;;;;23.63;10.50;;;;;;;-149.78;100.00;50142.88;5091710;28;20118;-73
2022/05/15 07:26:58;;;;;;;27.30;9.55;;;;;;;-149.78;100.00;50150.72;5085091;28;20455;-73
2022/05/15 07:29:24;;;;;;;23.88;9.55;;;;;;;-149.78;100.00;50158.53;5097062;28;20119;-73
2022/05/15 07:31:51;;;;;;;31.60;10.43;;;;;;;-149.78;100.00;50146.81;5105590;28;20086;-73
2022/05/15 07:34:18;;;;;;;25.13;8.95;;;;;;;-149.78;100.00;50150.72;5101697;28;20134;-73
2022/05/15 07:36:43;;;;;;;26.60;9.15;;;;;;;-149.78;100.00;50138.97;5107343;28;20024;-71
2022/05/15 07:39:10;;;;;;;26.90;8.90;;;;;;;-149.78;100.00;50123.34;5100360;28;20036;-72
2022/05/15 07:41:36;;;;;;;25.48;9.07;;;;;;;-149.78;100.00;50138.97;5109071;28;20031;-72
2022/05/15 07:44:02;;;;;;;23.55;8.38;;;;;;;-149.78;100.00;50146.81;5088291;28;20047;-73
2022/05/15 07:46:28;;;;;;;16.20;7.90;;;;;;;-149.78;100.00;50150.72;5112238;28;20380;-73
2022/05/15 07:48:54;;;;;;;17.05;7.47;;;;;;;-149.78;100.00;50162.44;5108619;27;20032;-73
2022/05/15 07:51:21;;;;;;;27.63;9.10;;;;;;;-149.78;100.00;50138.97;5112061;27;20132;-72
2022/05/15 07:53:46;;;;;;;19.50;7.75;;;;;;;-149.78;100.00;50144.84;5103559;27;20031;-72
2022/05/15 07:56:13;;;;;;;23.55;7.35;;;;;;;-149.78;100.00;50154.63;5122146;27;20043;-72
2022/05/15 07:58:40;;;;;;;25.83;7.95;;;;;;;-149.78;100.00;50142.88;5126748;27;20027;-73
2022/05/15 08:01:07;;;;;;;22.65;8.15;;;;;;;-149.78;100.00;50127.25;5123052;27;20500;-72
2022/05/15 08:03:37;;;;;;;23.10;7.85;;;;;;;-149.78;100.00;50154.63;5085574;27;20111;-72
2022/05/15 08:08:48;;;;;;;19.23;7.55;;;;;;;-149.78;100.00;50115.50;5121527;27;20028;-73
2022/05/15 08:11:14;;;;;;;21.30;7.93;;;;;;;-149.78;100.00;50127.25;5106999;27;20068;-72
2022/05/15 08:13:40;;;;;;;19.60;8.13;;;;;;;-149.78;100.00;50146.81;5108104;27;20070;-72
2022/05/15 08:16:06;;;;;;;17.92;7.68;;;;;;;-149.78;100.00;50150.72;5109066;27;20116;-72
2022/05/15 08:24:01;;;;;;;17.98;7.78;;;;;;;-149.78;100.00;50142.88;5125521;27;20036;-73
2022/05/15 08:26:27;;;;;;;19.02;7.40;;;;;;;-149.78;100.00;50138.97;5099795;27;20038;-72
2022/05/15 08:28:54;;;;;;;20.52;7.72;;;;;;;-149.78;100.00;50135.06;5108644;27;20019;-72
2022/05/15 08:31:22;;;;;;;21.80;7.90;;;;;;;-149.78;100.00;50092.03;5113441;27;20042;-72
2022/05/15 08:33:48;;;;;;;22.83;8.05;;;;;;;-149.78;100.00;50150.72;5128153;27;20030;-72
2022/05/15 08:36:15;;;;;;;20.27;7.40;;;;;;;-149.78;100.00;50107.69;5127238;27;20027;-72
2022/05/15 08:38:43;;;;;;;17.48;7.65;;;;;;;-149.78;100.00;50172.22;5118820;27;20032;-70
2022/05/15 08:41:18;;;;;;;19.23;7.28;;;;;;;-149.78;100.00;50117.47;5098267;27;20072;-71
2022/05/15 08:44:02;;;;;;;23.55;7.03;;;;;;;-149.78;100.00;50135.06;5118754;27;20031;-71
2022/05/15 08:46:30;;;;;;;20.60;7.15;;;;;;;-149.78;100.00;50123.34;5099673;27;20118;-71
2022/05/15 08:49:06;;;;;;;23.75;7.55;;;;;;;-149.78;100.00;50111.59;5101693;27;20015;-71
2022/05/15 08:51:33;;;;;;;21.58;6.90;;;;;;;-149.78;100.00;50127.25;5100635;27;20038;-71
2022/05/15 08:54:05;;;;;;;21.40;6.85;;;;;;;-149.78;100.00;50127.25;5092201;28;20047;-71
2022/05/15 08:56:39;;;;;;;20.13;7.10;;;;;;;-149.78;100.00;50103.78;5117873;27;20035;-71
2022/05/15 08:59:13;;;;;;;17.13;6.65;;;;;;;-149.78;100.00;50119.41;5101967;27;20518;-70
2022/05/15 09:01:40;;;;;;;20.77;7.60;;;;;;;-149.78;100.00;50111.59;5117035;27;20038;-70
2022/05/15 09:04:07;;;;;;;17.95;6.13;;;;;;;-149.78;100.00;50080.31;5118088;27;20047;-69
2022/05/15 09:06:38;;;;;;;16.77;5.68;;;;;;;-149.78;100.00;50099.88;5117653;27;20153;-72
2022/05/15 09:09:12;;;;;;;12.02;5.43;;;;;;;-149.78;100.00;50060.75;5128228;27;20074;-73
2022/05/15 09:12:03;;;;;;;13.50;5.57;;;;;;;-149.78;100.00;50070.53;5102241;27;20514;-72
2022/05/15 09:14:53;;;;;;;10.52;5.07;;;;;;;-149.78;100.00;50031.41;5103496;27;20027;-74
2022/05/15 09:17:52;;;;;;;15.75;5.38;;;;;;;-149.78;100.00;50025.56;5116284;27;20019;-74
2022/05/15 09:20:25;;;;;;;12.27;5.03;;;;;;;-149.78;100.00;50039.25;5117808;27;20491;-73
2022/05/15 09:23:02;;;;;;;11.02;4.75;;;;;;;-149.78;100.00;50050.97;5098665;27;20402;-73
2022/05/15 09:25:33;;;;;;;13.45;5.43;;;;;;;-149.78;100.00;50072.50;5108897;27;20118;-74
2022/05/15 09:28:04;;;;;;;17.30;5.60;;;;;;;-149.78;100.00;50056.84;5104420;27;20636;-74
2022/05/15 09:30:42;;;;;;;14.98;5.82;;;;;;;-149.78;100.00;50064.66;5098662;27;20023;-74
2022/05/15 09:33:21;;;;;;;18.73;5.30;;;;;;;-149.78;100.00;50076.41;5117123;27;20366;-74
2022/05/15 09:35:47;;;;;;;11.27;4.53;;;;;;;-149.78;100.00;50084.22;5118850;27;20580;-74
2022/05/15 09:38:29;;;;;;;15.95;4.50;;;;;;;-149.78;100.00;50090.09;5101953;27;20483;-74
2022/05/15 09:43:54;;;;;;;16.23;5.63;;;;;;;-149.78;100.00;50092.03;5117681;27;20084;-74
2022/05/15 09:46:24;;;;;;;16.98;5.25;;;;;;;-149.78;100.00;50070.53;5124529;27;20374;-75
2022/05/15 09:49:26;;;;;;;17.63;4.80;;;;;;;-149.78;100.00;50037.28;5126569;27;20058;-74
2022/05/15 09:51:55;;;;;;;15.45;4.65;;;;;;;-149.78;100.00;50072.50;5028794;28;20448;-74
2022/05/15 09:54:33;;;;;;;12.75;4.70;;;;;;;-149.78;100.00;50017.72;5109554;27;20031;-76
2022/05/15 09:57:10;;;;;;;10.13;4.10;;;;;;;-149.78;100.00;50045.09;5110757;27;20059;-71
2022/05/15 09:59:35;;;;;;;10.57;3.63;;;;;;;-149.78;100.00;50076.41;5125367;27;20087;-70
2022/05/15 10:02:02;;;;;;;16.02;4.32;;;;;;;-149.78;100.00;50043.16;5104079;27;20745;-70
2022/05/15 10:04:32;;;;;;;13.82;4.80;;;;;;;-149.78;100.00;50017.72;5131106;27;20038;-70
2022/05/15 10:07:04;;;;;;;13.55;4.10;;;;;;;-149.78;100.00;50064.66;5131051;27;20050;-70
2022/05/15 10:09:31;;;;;;;10.80;4.32;;;;;;;-149.78;100.00;50092.03;5131546;27;20051;-69
2022/05/15 10:12:10;;;;;;;13.60;4.68;;;;;;;-149.78;100.00;50049.03;5145627;27;20050;-69
2022/05/15 10:14:47;;;;;;;13.52;4.75;;;;;;;-149.78;100.00;50060.75;5146756;27;20485;-71
2022/05/15 10:17:14;;;;;;;12.10;4.57;;;;;;;-149.78;100.00;50111.59;5101089;27;20031;-72
2022/05/15 10:19:53;;;;;;;12.77;4.53;;;;;;;-149.78;100.00;50070.53;5098011;27;20030;-73
2022/05/15 10:22:42;;;;;;;13.50;4.80;;;;;;;-149.78;100.00;50070.53;5142606;27;20046;-72
2022/05/15 10:25:16;;;;;;;13.82;4.70;;;;;;;-149.78;100.00;50062.72;5131335;27;20461;-72
2022/05/15 10:27:49;;;;;;;20.95;5.85;;;;;;;-149.78;100.00;50052.94;5138564;27;20026;-73
2022/05/15 10:30:19;;;;;;;14.38;4.70;;;;;;;-149.78;100.00;50101.81;5140232;27;20031;-72
2022/05/15 10:32:57;;;;;;;16.67;4.53;;;;;;;-149.78;100.00;50060.75;5082130;28;20496;-73
2022/05/15 10:35:43;;;;;;;11.77;4.70;;;;;;;-149.78;100.00;50084.22;5119415;27;20046;-72
2022/05/15 10:38:33;;;;;;;15.73;5.13;;;;;;;-149.78;100.00;50095.94;5124199;27;20035;-72
2022/05/15 10:41:19;;;;;;;11.95;4.93;;;;;;;-149.78;100.00;50078.34;5133974;27;20031;-72
2022/05/15 10:44:09;;;;;;;18.05;5.05;;;;;;;-149.78;100.00;50033.38;5117624;28;20027;-72
2022/05/15 10:46:37;;;;;;;12.90;5.05;;;;;;;-149.78;100.00;50025.56;5129868;27;20031;-75
2022/05/15 10:49:47;;;;;;;13.68;4.25;;;;;;;-149.78;100.00;49990.34;5109803;28;20038;-74
2022/05/15 10:52:20;;;;;;;17.00;4.65;;;;;;;-149.78;100.00;49970.78;5023820;28;20037;-75
2022/05/15 10:58:19;;;;;;;11.55;5.15;;;;;;;-149.78;100.00;50002.09;5101217;27;20042;-74
2022/05/15 11:01:09;;;;;;;16.50;5.85;;;;;;;-149.78;100.00;50004.03;5108566;27;20112;-74
2022/05/15 11:03:50;;;;;;;16.10;5.22;;;;;;;-149.78;100.00;49982.53;5131526;27;20030;-74
2022/05/15 11:06:40;;;;;;;14.13;6.20;;;;;;;-149.78;100.00;50002.09;5131651;27;20031;-74
2022/05/15 11:09:17;;;;;;;14.13;5.80;;;;;;;-149.78;100.00;50006.00;5100098;27;20039;-74
2022/05/15 11:11:48;;;;;;;20.13;6.38;;;;;;;-149.78;100.00;50006.00;5115553;27;20028;-74
2022/05/15 11:14:35;;;;;;;21.35;7.40;;;;;;;-149.78;100.00;50037.28;5123271;27;20023;-74
2022/05/15 11:17:46;;;;;;;18.85;7.38;;;;;;;-149.78;100.00;50013.81;5128943;27;20035;-75
2022/05/15 11:20:22;;;;;;;19.50;8.02;;;;;;;-149.78;100.00;50006.00;5069897;27;20031;-75
2022/05/15 11:22:54;;;;;;;20.67;8.60;;;;;;;-149.78;100.00;50006.00;5126954;27;20031;-75
2022/05/15 11:25:35;;;;;;;27.85;9.05;;;;;;;-149.78;100.00;49990.34;5124480;27;20027;-75
2022/05/15 11:28:07;;;;;;;24.27;8.40;;;;;;;-149.78;100.00;50000.13;5105710;27;20063;-74
2022/05/15 11:30:41;;;;;;;23.40;8.50;;;;;;;-149.78;100.00;50033.38;5113750;27;20023;-75
2022/05/15 11:33:30;;;;;;;24.70;8.45;;;;;;;-149.78;100.00;50025.56;5102322;27;20031;-75